createdAt,value
2023-05-23T00:00:59.897Z,101602.59
2023-05-23T00:03:27.614Z,101591.41
2023-05-23T00:05:56.710Z,101593.81
2023-05-23T00:08:23.785Z,101592.56
2023-05-23T00:10:50.565Z,101590.50
2023-05-23T00:13:17.704Z,101591.19
2023-05-23T00:15:45.129Z,101590.28
2023-05-23T00:18:12.613Z,101590.31
2023-05-23T00:20:40.965Z,101600.22
2023-05-23T00:23:09.936Z,101599.84
2023-05-23T00:25:37.469Z,101599.41
2023-05-23T00:28:05.043Z,101604.66
2023-05-23T00:30:33.366Z,101613.47
2023-05-23T00:33:01.153Z,101617.69
2023-05-23T00:35:28.015Z,101618.72
2023-05-23T00:37:55.659Z,101618.16
2023-05-23T00:40:23.097Z,101607.06
2023-05-23T00:42:49.972Z,101619.63
2023-05-23T00:45:17.224Z,101609.13
2023-05-23T00:47:45.146Z,101614.81
2023-05-23T00:50:16.924Z,101605.47
2023-05-23T00:52:45.873Z,101604.56
2023-05-23T00:55:13.386Z,101606.84
2023-05-23T00:57:44.621Z,101615.53
2023-05-23T01:00:15.479Z,101618.59
2023-05-23T01:02:47.248Z,101615.16
2023-05-23T01:05:17.851Z,101611.94
2023-05-23T01:07:48.988Z,101626.03
2023-05-23T01:10:18.192Z,101627.19
2023-05-23T01:13:23.428Z,101633.78
2023-05-23T01:16:06.522Z,101640.06
2023-05-23T01:18:59.198Z,101638.22
2023-05-23T01:21:27.090Z,101634.47
2023-05-23T01:24:18.671Z,101635.41
2023-05-23T01:27:10.160Z,101642.34
2023-05-23T01:29:41.889Z,101636.63
2023-05-23T01:32:11.832Z,101641.34
2023-05-23T01:34:40.140Z,101636.22
2023-05-23T01:37:11.370Z,101644.88
2023-05-23T01:39:39.433Z,101643.97
2023-05-23T01:42:07.051Z,101648.78
2023-05-23T01:44:35.559Z,101655.38
2023-05-23T01:47:07.358Z,101652.84
2023-05-23T01:49:36.127Z,101653.06
2023-05-23T01:52:03.545Z,101647.88
2023-05-23T01:54:32.547Z,101657.34
2023-05-23T01:56:59.787Z,101651.25
2023-05-23T01:59:26.773Z,101646.94
2023-05-23T02:01:55.026Z,101645.44
2023-05-23T02:04:22.178Z,101651.13
2023-05-23T02:06:48.963Z,101645.41
2023-05-23T02:09:16.622Z,101638.69
2023-05-23T02:11:44.970Z,101648.78
2023-05-23T02:14:13.067Z,101647.50
2023-05-23T02:16:40.061Z,101643.50
2023-05-23T02:19:07.180Z,101651.69
2023-05-23T02:21:35.527Z,101649.53
2023-05-23T02:24:03.620Z,101644.16
2023-05-23T02:26:30.765Z,101647.72
2023-05-23T02:28:57.805Z,101645.78
2023-05-23T02:31:25.106Z,101654.13
2023-05-23T02:33:52.051Z,101649.31
2023-05-23T02:36:18.902Z,101647.16
2023-05-23T02:38:45.909Z,101655.94
2023-05-23T02:41:12.773Z,101651.50
2023-05-23T02:43:39.711Z,101650.09
2023-05-23T02:46:06.836Z,101656.63
2023-05-23T02:48:33.674Z,101658.22
2023-05-23T02:51:00.694Z,101664.97
2023-05-23T02:53:27.715Z,101664.16
2023-05-23T02:55:54.692Z,101668.06
2023-05-23T02:58:21.719Z,101668.06
2023-05-23T03:00:48.651Z,101667.03
2023-05-23T03:03:17.038Z,101668.50
2023-05-23T03:05:44.276Z,101666.69
2023-05-23T03:08:11.155Z,101665.66
2023-05-23T03:10:37.851Z,101663.38
2023-05-23T03:13:04.979Z,101665.41
2023-05-23T03:15:32.020Z,101676.69
2023-05-23T03:17:59.355Z,101670.25
2023-05-23T03:20:26.398Z,101678.91
2023-05-23T03:22:54.675Z,101673.88
2023-05-23T03:25:23.180Z,101682.84
2023-05-23T03:27:50.122Z,101693.25
2023-05-23T03:30:17.042Z,101686.66
2023-05-23T03:32:43.861Z,101692.00
2023-05-23T03:35:11.535Z,101692.72
2023-05-23T03:37:39.796Z,101686.66
2023-05-23T03:40:07.525Z,101693.81
2023-05-23T03:42:35.044Z,101697.28
2023-05-23T03:45:01.958Z,101698.28
2023-05-23T03:47:28.784Z,101695.81
2023-05-23T03:49:57.983Z,101698.59
2023-05-23T03:52:25.597Z,101703.66
2023-05-23T03:54:52.366Z,101705.53
2023-05-23T03:57:19.531Z,101711.13
2023-05-23T03:59:47.053Z,101705.88
2023-05-23T04:02:14.759Z,101712.38
2023-05-23T04:04:41.677Z,101713.69
2023-05-23T04:07:10.137Z,101714.56
2023-05-23T04:09:38.889Z,101720.03
2023-05-23T04:12:09.830Z,101716.53
2023-05-23T04:14:37.451Z,101716.69
2023-05-23T04:17:04.404Z,101729.72
2023-05-23T04:19:32.102Z,101723.63
2023-05-23T04:21:58.991Z,101717.66
2023-05-23T04:24:26.170Z,101716.06
2023-05-23T04:26:56.287Z,101727.72
2023-05-23T04:29:25.173Z,101727.19
2023-05-23T04:31:52.020Z,101719.19
2023-05-23T04:34:22.199Z,101717.28
2023-05-23T04:36:49.568Z,101733.72
2023-05-23T04:39:16.724Z,101730.66
2023-05-23T04:41:59.695Z,101730.09
2023-05-23T04:44:45.160Z,101733.41
2023-05-23T04:47:17.752Z,101730.78
2023-05-23T04:50:06.355Z,101735.59
2023-05-23T04:52:34.305Z,101735.94
2023-05-23T04:55:01.583Z,101737.16
2023-05-23T04:57:29.089Z,101742.19
2023-05-23T04:59:57.054Z,101748.63
2023-05-23T05:02:24.157Z,101745.28
2023-05-23T05:04:51.342Z,101746.31
2023-05-23T05:07:18.387Z,101746.00
2023-05-23T05:09:45.218Z,101745.75
2023-05-23T05:12:13.518Z,101750.56
2023-05-23T05:14:40.846Z,101753.69
2023-05-23T05:17:08.188Z,101753.34
2023-05-23T05:19:47.117Z,101749.16
2023-05-23T05:22:15.208Z,101755.28
2023-05-23T05:24:42.122Z,101758.41
2023-05-23T05:27:09.587Z,101759.38
2023-05-23T05:29:36.623Z,101758.88
2023-05-23T05:32:04.578Z,101758.28
2023-05-23T05:34:31.313Z,101753.16
2023-05-23T05:36:59.008Z,101757.00
2023-05-23T05:39:26.530Z,101753.03
2023-05-23T05:41:54.200Z,101760.00
2023-05-23T05:44:21.232Z,101760.84
2023-05-23T05:46:48.897Z,101753.28
2023-05-23T05:49:15.855Z,101757.38
2023-05-23T05:51:44.836Z,101759.56
2023-05-23T05:54:12.765Z,101762.53
2023-05-23T05:56:39.665Z,101763.75
2023-05-23T05:59:06.536Z,101760.75
2023-05-23T06:01:34.895Z,101768.94
2023-05-23T06:04:01.882Z,101772.16
2023-05-23T06:06:29.063Z,101770.56
2023-05-23T06:08:55.839Z,101777.97
2023-05-23T06:11:22.755Z,101784.06
2023-05-23T06:13:49.498Z,101781.50
2023-05-23T06:16:16.522Z,101784.19
2023-05-23T06:18:45.129Z,101779.97
2023-05-23T06:21:12.061Z,101791.38
2023-05-23T06:23:39.003Z,101786.97
2023-05-23T06:26:10.667Z,101789.31
2023-05-23T06:28:39.665Z,101796.72
2023-05-23T06:31:10.024Z,101787.78
2023-05-23T06:33:37.125Z,101793.00
2023-05-23T06:36:04.146Z,101793.66
2023-05-23T06:38:35.202Z,101795.25
2023-05-23T06:41:03.814Z,101799.59
2023-05-23T06:43:31.056Z,101807.28
2023-05-23T06:46:13.774Z,101814.09
2023-05-23T06:48:40.625Z,101814.41
2023-05-23T06:51:07.479Z,101820.25
2023-05-23T06:53:34.312Z,101808.75
2023-05-23T06:56:01.377Z,101821.34
2023-05-23T06:58:30.140Z,101818.22
2023-05-23T07:00:58.756Z,101815.47
2023-05-23T07:03:32.746Z,101834.69
2023-05-23T07:06:04.543Z,101826.72
2023-05-23T07:08:31.937Z,101824.25
2023-05-23T07:11:00.407Z,101832.84
2023-05-23T07:13:37.827Z,101832.88
2023-05-23T07:16:04.989Z,101838.69
2023-05-23T07:18:36.160Z,101835.50
2023-05-23T07:21:05.441Z,101840.31
2023-05-23T07:23:36.363Z,101841.28
2023-05-23T07:26:03.985Z,101845.50
2023-05-23T07:28:40.201Z,101851.28
2023-05-23T07:31:09.651Z,101856.84
2023-05-23T07:33:37.413Z,101849.63
2023-05-23T07:36:05.259Z,101853.91
2023-05-23T07:38:32.787Z,101858.06
2023-05-23T07:41:10.678Z,101854.78
2023-05-23T07:43:40.387Z,101865.22
2023-05-23T07:46:07.381Z,101856.19
2023-05-23T07:48:34.300Z,101868.34
2023-05-23T07:51:01.558Z,101860.97
2023-05-23T07:53:28.995Z,101857.94
2023-05-23T07:55:56.795Z,101866.13
2023-05-23T07:58:26.546Z,101878.25
2023-05-23T08:00:53.632Z,101872.72
2023-05-23T08:03:49.817Z,101878.50
2023-05-23T08:06:23.023Z,101878.53
2023-05-23T08:08:51.153Z,101877.41
2023-05-23T08:11:17.985Z,101891.78
2023-05-23T08:13:50.795Z,101884.00
2023-05-23T08:16:43.207Z,101883.78
2023-05-23T08:19:15.379Z,101888.66
2023-05-23T08:21:42.678Z,101886.31
2023-05-23T08:24:09.670Z,101891.88
2023-05-23T08:26:37.886Z,101880.69
2023-05-23T08:29:08.544Z,101878.25
2023-05-23T08:31:37.361Z,101876.31
2023-05-23T08:34:05.538Z,101881.78
2023-05-23T08:36:36.616Z,101881.75
2023-05-23T08:39:05.852Z,101884.13
2023-05-23T08:41:36.631Z,101882.28
2023-05-23T08:44:08.711Z,101884.34
2023-05-23T08:46:45.905Z,101886.50
2023-05-23T08:49:19.319Z,101886.97
2023-05-23T08:51:47.346Z,101895.66
2023-05-23T08:54:19.668Z,101888.22
2023-05-23T08:56:46.408Z,101893.16
2023-05-23T08:59:15.224Z,101892.78
2023-05-23T09:01:44.128Z,101899.41
2023-05-23T09:04:12.766Z,101904.56
2023-05-23T09:06:56.161Z,101903.03
2023-05-23T09:09:23.258Z,101903.31
2023-05-23T09:11:51.081Z,101900.66
2023-05-23T09:14:18.357Z,101905.16
2023-05-23T09:16:51.945Z,101904.03
2023-05-23T09:19:22.479Z,101905.50
2023-05-23T09:21:55.731Z,101905.63
2023-05-23T09:24:36.095Z,101903.38
2023-05-23T09:27:08.676Z,101914.28
2023-05-23T09:29:41.750Z,101914.50
2023-05-23T09:32:14.457Z,101904.00
2023-05-23T09:34:43.085Z,101902.88
2023-05-23T09:37:13.694Z,101911.56
2023-05-23T09:39:46.575Z,101904.00
2023-05-23T09:42:23.600Z,101912.44
2023-05-23T09:44:51.117Z,101916.22
2023-05-23T09:47:18.291Z,101923.50
2023-05-23T09:49:46.786Z,101909.94
2023-05-23T09:52:13.673Z,101918.28
2023-05-23T09:54:41.044Z,101926.44
2023-05-23T09:57:11.669Z,101923.91
2023-05-23T09:59:41.359Z,101927.41
2023-05-23T10:02:11.928Z,101938.22
2023-05-23T10:04:43.553Z,101926.97
2023-05-23T10:07:23.611Z,101923.91
2023-05-23T10:09:59.051Z,101924.25
2023-05-23T10:12:32.495Z,101933.19
2023-05-23T10:15:04.706Z,101934.97
2023-05-23T10:17:52.864Z,101937.94
2023-05-23T10:20:22.647Z,101939.13
2023-05-23T10:22:50.178Z,101940.63
2023-05-23T10:25:17.347Z,101943.13
2023-05-23T10:27:45.623Z,101930.09
2023-05-23T10:30:13.088Z,101930.66
2023-05-23T10:32:40.050Z,101941.41
2023-05-23T10:35:11.778Z,101935.84
2023-05-23T10:37:56.461Z,101932.28
2023-05-23T10:40:23.554Z,101930.09
2023-05-23T10:42:56.534Z,101933.41
2023-05-23T10:45:27.277Z,101927.69
2023-05-23T10:47:54.537Z,101930.00
2023-05-23T10:50:41.885Z,101924.84
2023-05-23T10:53:11.346Z,101927.00
2023-05-23T10:55:38.266Z,101926.91
2023-05-23T10:58:12.052Z,101920.88
2023-05-23T11:00:38.999Z,101924.56
2023-05-23T11:03:09.300Z,101923.91
2023-05-23T11:05:38.747Z,101916.44
2023-05-23T11:08:17.908Z,101924.44
2023-05-23T11:11:04.974Z,101922.97
2023-05-23T11:13:53.631Z,101920.75
2023-05-23T11:16:27.394Z,101925.25
2023-05-23T11:19:33.178Z,101926.00
2023-05-23T11:22:02.234Z,101918.66
2023-05-23T11:24:48.158Z,101920.44
2023-05-23T11:27:15.614Z,101914.41
2023-05-23T11:29:42.517Z,101915.06
2023-05-23T11:32:17.224Z,101904.53
2023-05-23T11:34:44.697Z,101915.13
2023-05-23T11:37:12.129Z,101916.94
2023-05-23T11:39:40.588Z,101920.00
2023-05-23T11:42:07.809Z,101911.88
2023-05-23T11:44:34.675Z,101916.19
2023-05-23T11:47:06.823Z,101924.69
2023-05-23T11:49:38.447Z,101920.19
2023-05-23T11:52:06.681Z,101916.69
2023-05-23T11:54:33.712Z,101916.94
2023-05-23T11:57:01.064Z,101913.06
2023-05-23T11:59:28.617Z,101914.91
2023-05-23T12:01:56.157Z,101910.28
2023-05-23T12:04:23.138Z,101912.84
2023-05-23T12:06:50.608Z,101911.81
2023-05-23T12:09:17.553Z,101907.22
2023-05-23T12:11:45.805Z,101907.88
2023-05-23T12:14:18.724Z,101909.03
2023-05-23T12:16:46.978Z,101905.38
2023-05-23T12:19:15.651Z,101899.19
2023-05-23T12:21:44.327Z,101905.84
2023-05-23T12:24:19.369Z,101915.19
2023-05-23T12:26:51.267Z,101912.94
2023-05-23T12:29:22.481Z,101915.78
2023-05-23T12:31:50.986Z,101905.47
2023-05-23T12:34:17.880Z,101915.50
2023-05-23T12:36:49.300Z,101910.56
2023-05-23T12:39:17.045Z,101917.91
2023-05-23T12:41:45.474Z,101918.59
2023-05-23T12:44:16.348Z,101911.19
2023-05-23T12:46:43.669Z,101920.72
2023-05-23T12:49:11.202Z,101918.94
2023-05-23T12:51:38.061Z,101907.81
2023-05-23T12:54:04.978Z,101920.94
2023-05-23T12:56:32.006Z,101912.97
2023-05-23T12:58:59.538Z,101909.22
2023-05-23T13:01:26.879Z,101909.38
2023-05-23T13:03:53.768Z,101922.44
2023-05-23T13:06:20.572Z,101910.28
2023-05-23T13:08:48.771Z,101921.81
2023-05-23T13:11:16.130Z,101924.25
2023-05-23T13:13:43.110Z,101910.09
2023-05-23T13:16:09.912Z,101916.75
2023-05-23T13:18:36.928Z,101910.72
2023-05-23T13:21:03.983Z,101910.03
2023-05-23T13:23:31.009Z,101910.56
2023-05-23T13:25:58.155Z,101915.41
2023-05-23T13:28:24.963Z,101911.34
2023-05-23T13:30:51.784Z,101909.75
2023-05-23T13:33:18.531Z,101909.75
2023-05-23T13:35:45.557Z,101900.97
2023-05-23T13:38:12.855Z,101908.25
2023-05-23T13:40:39.996Z,101905.28
2023-05-23T13:43:07.210Z,101895.53
2023-05-23T13:45:34.515Z,101899.75
2023-05-23T13:48:01.395Z,101897.94
2023-05-23T13:50:28.297Z,101901.59
2023-05-23T13:52:55.089Z,101903.00
2023-05-23T13:55:21.928Z,101902.59
2023-05-23T13:57:48.750Z,101899.91
2023-05-23T14:00:16.369Z,101887.16
2023-05-23T14:02:43.214Z,101891.84
2023-05-23T14:05:10.159Z,101901.41
2023-05-23T14:07:37.085Z,101906.66
2023-05-23T14:10:05.171Z,101897.84
2023-05-23T14:12:32.007Z,101891.56
2023-05-23T14:14:59.265Z,101894.53
2023-05-23T14:17:26.078Z,101901.94
2023-05-23T14:19:53.061Z,101893.44
2023-05-23T14:22:26.193Z,101890.38
2023-05-23T14:24:53.059Z,101884.09
2023-05-23T14:27:22.676Z,101898.19
2023-05-23T14:29:49.938Z,101892.16
2023-05-23T14:32:16.766Z,101896.81
2023-05-23T14:34:43.657Z,101896.75
2023-05-23T14:37:10.453Z,101899.25
2023-05-23T14:39:37.278Z,101896.59
2023-05-23T14:42:06.987Z,101889.78
2023-05-23T14:44:35.664Z,101899.44
2023-05-23T14:47:02.848Z,101887.38
2023-05-23T14:49:29.658Z,101887.97
2023-05-23T14:51:56.474Z,101891.28
2023-05-23T14:54:23.505Z,101884.31
2023-05-23T14:56:56.322Z,101877.00
2023-05-23T14:59:23.581Z,101885.75
2023-05-23T15:01:50.519Z,101879.56
2023-05-23T15:04:17.912Z,101873.34
2023-05-23T15:06:47.230Z,101868.19
2023-05-23T15:09:14.154Z,101872.09
2023-05-23T15:11:42.422Z,101871.13
2023-05-23T15:14:09.674Z,101876.81
2023-05-23T15:16:37.437Z,101875.28
2023-05-23T15:19:05.182Z,101881.38
2023-05-23T15:21:32.359Z,101882.22
2023-05-23T15:23:59.924Z,101883.25
2023-05-23T15:26:27.427Z,101872.16
2023-05-23T15:28:54.572Z,101881.22
2023-05-23T15:31:21.648Z,101887.53
2023-05-23T15:33:51.828Z,101881.31
2023-05-23T15:36:18.828Z,101870.50
2023-05-23T15:38:46.076Z,101873.97
2023-05-23T15:41:13.068Z,101863.31
2023-05-23T15:43:42.585Z,101871.19
2023-05-23T15:46:09.602Z,101876.28
2023-05-23T15:48:36.473Z,101871.56
2023-05-23T15:51:03.439Z,101875.13
2023-05-23T15:53:40.195Z,101871.34
2023-05-23T15:56:15.960Z,101879.75
2023-05-23T15:58:43.550Z,101882.47
2023-05-23T16:01:10.485Z,101875.91
2023-05-23T16:03:37.842Z,101873.47
2023-05-23T16:06:05.097Z,101874.75
2023-05-23T16:08:31.883Z,101863.81
2023-05-23T16:10:58.738Z,101876.31
2023-05-23T16:13:25.609Z,101866.56
2023-05-23T16:15:52.911Z,101877.06
2023-05-23T16:18:23.389Z,101878.47
2023-05-23T16:20:51.285Z,101873.84
2023-05-23T16:23:18.248Z,101885.13
2023-05-23T16:25:46.529Z,101870.00
2023-05-23T16:28:13.378Z,101872.44
2023-05-23T16:30:40.182Z,101872.22
2023-05-23T16:33:06.979Z,101869.69
2023-05-23T16:35:34.293Z,101876.38
2023-05-23T16:38:01.142Z,101870.28
2023-05-23T16:40:27.848Z,101870.44
2023-05-23T16:42:55.176Z,101863.44
2023-05-23T16:45:22.136Z,101873.59
2023-05-23T16:47:49.620Z,101874.25
2023-05-23T16:50:16.599Z,101864.63
2023-05-23T16:52:44.865Z,101868.13
2023-05-23T16:55:11.827Z,101865.19
2023-05-23T16:57:38.823Z,101861.88
2023-05-23T17:00:07.691Z,101874.13
2023-05-23T17:02:34.827Z,101875.97
2023-05-23T17:05:01.929Z,101865.94
2023-05-23T17:07:31.427Z,101871.75
2023-05-23T17:10:00.918Z,101872.69
2023-05-23T17:12:27.804Z,101868.81
2023-05-23T17:14:55.027Z,101887.31
2023-05-23T17:17:22.011Z,101876.56
2023-05-23T17:19:50.779Z,101884.81
2023-05-23T17:22:17.606Z,101885.03
2023-05-23T17:24:44.418Z,101884.91
2023-05-23T17:27:11.448Z,101889.50
2023-05-23T17:29:38.226Z,101882.97
2023-05-23T17:32:05.306Z,101886.75
2023-05-23T17:34:32.307Z,101885.94
2023-05-23T17:36:59.115Z,101875.97
2023-05-23T17:39:26.286Z,101887.78
2023-05-23T17:41:53.468Z,101882.50
2023-05-23T17:44:24.320Z,101887.28
2023-05-23T17:46:51.174Z,101891.09
2023-05-23T17:49:18.579Z,101888.47
2023-05-23T17:51:45.863Z,101895.78
2023-05-23T17:54:12.701Z,101895.31
2023-05-23T17:56:39.583Z,101900.59
2023-05-23T17:59:06.779Z,101897.28
2023-05-23T18:01:34.286Z,101894.59
2023-05-23T18:04:01.999Z,101887.88
2023-05-23T18:06:28.875Z,101901.47
2023-05-23T18:08:55.717Z,101899.25
2023-05-23T18:11:24.151Z,101903.31
2023-05-23T18:13:50.968Z,101907.19
2023-05-23T18:16:17.866Z,101906.16
2023-05-23T18:18:44.768Z,101915.56
2023-05-23T18:21:11.507Z,101911.84
2023-05-23T18:23:38.563Z,101919.38
2023-05-23T18:26:05.857Z,101906.44
2023-05-23T18:28:32.671Z,101912.44
2023-05-23T18:30:59.480Z,101913.91
2023-05-23T18:33:27.780Z,101915.53
2023-05-23T18:35:54.825Z,101925.00
2023-05-23T18:38:21.807Z,101921.91
2023-05-23T18:40:48.565Z,101931.00
2023-05-23T18:43:17.503Z,101931.47
2023-05-23T18:45:44.696Z,101930.75
2023-05-23T18:48:11.652Z,101930.63
2023-05-23T18:50:38.788Z,101936.31
2023-05-23T18:53:05.741Z,101932.03
2023-05-23T18:55:32.646Z,101938.72
2023-05-23T18:57:59.632Z,101942.25
2023-05-23T19:00:26.522Z,101953.38
2023-05-23T19:02:53.395Z,101956.97
2023-05-23T19:05:21.464Z,101948.56
2023-05-23T19:07:48.425Z,101948.59
2023-05-23T19:10:15.166Z,101961.56
2023-05-23T19:12:41.951Z,101961.50
2023-05-23T19:15:10.713Z,101966.78
2023-05-23T19:17:38.183Z,101969.44
2023-05-23T19:20:05.451Z,101985.28
2023-05-23T19:22:46.992Z,101985.44
2023-05-23T19:25:17.548Z,101985.16
2023-05-23T19:27:44.490Z,101973.91
2023-05-23T19:30:11.837Z,101981.41
2023-05-23T19:32:38.671Z,101980.81
2023-05-23T19:35:06.100Z,101974.25
2023-05-23T19:37:32.966Z,101986.59
2023-05-23T19:40:00.762Z,101984.06
2023-05-23T19:42:28.266Z,101989.38
2023-05-23T19:44:55.270Z,101993.03
2023-05-23T19:47:22.150Z,101994.16
2023-05-23T19:49:49.057Z,102002.50
2023-05-23T19:52:16.009Z,102004.84
2023-05-23T19:54:43.020Z,101997.78
2023-05-23T19:57:09.833Z,102011.44
2023-05-23T19:59:36.629Z,102018.59
2023-05-23T20:02:03.431Z,102018.81
2023-05-23T20:04:30.366Z,102020.69
2023-05-23T20:06:57.168Z,102018.34
2023-05-23T20:09:24.997Z,102022.53
2023-05-23T20:11:51.754Z,102019.66
2023-05-23T20:14:18.620Z,102030.50
2023-05-23T20:16:46.048Z,102027.66
2023-05-23T20:19:12.995Z,102033.81
2023-05-23T20:21:39.847Z,102040.66
2023-05-23T20:24:06.848Z,102037.44
2023-05-23T20:26:33.770Z,102042.66
2023-05-23T20:29:01.400Z,102040.38
2023-05-23T20:31:28.425Z,102039.19
2023-05-23T20:33:55.701Z,102037.38
2023-05-23T20:36:23.627Z,102044.63
2023-05-23T20:38:50.466Z,102037.03
2023-05-23T20:41:17.629Z,102042.53
2023-05-23T20:43:45.796Z,102059.41
2023-05-23T20:46:15.979Z,102063.94
2023-05-23T20:48:42.789Z,102065.25
2023-05-23T20:51:09.989Z,102073.13
2023-05-23T20:53:36.922Z,102076.00
2023-05-23T20:56:04.566Z,102081.69
2023-05-23T20:58:31.807Z,102086.31
2023-05-23T21:00:59.590Z,102086.00
2023-05-23T21:03:26.541Z,102083.41
2023-05-23T21:05:53.609Z,102088.38
2023-05-23T21:08:21.187Z,102095.81
2023-05-23T21:10:50.904Z,102092.41
2023-05-23T21:13:19.399Z,102092.34
2023-05-23T21:15:46.253Z,102089.53
2023-05-23T21:18:13.029Z,102098.34
2023-05-23T21:20:39.944Z,102080.97
2023-05-23T21:23:07.144Z,102087.88
2023-05-23T21:25:34.026Z,102093.38
2023-05-23T21:28:01.191Z,102083.25
2023-05-23T21:30:28.364Z,102073.81
2023-05-23T21:32:56.056Z,102075.00
2023-05-23T21:35:22.904Z,102077.28
2023-05-23T21:37:49.864Z,102070.97
2023-05-23T21:40:17.700Z,102080.97
2023-05-23T21:42:44.425Z,102081.16
2023-05-23T21:45:11.700Z,102080.00
2023-05-23T21:47:38.737Z,102081.06
2023-05-23T21:50:06.273Z,102081.06
2023-05-23T21:52:37.204Z,102083.84
2023-05-23T21:55:04.400Z,102088.38
2023-05-23T21:57:34.144Z,102082.63
2023-05-23T22:00:14.910Z,102087.00
2023-05-23T22:02:45.025Z,102081.50
2023-05-23T22:05:27.460Z,102091.50
2023-05-23T22:07:54.368Z,102089.22
2023-05-23T22:10:21.296Z,102093.56
2023-05-23T22:12:51.300Z,102090.66
2023-05-23T22:15:18.322Z,102090.03
2023-05-23T22:17:46.994Z,102090.34
2023-05-23T22:20:22.372Z,102092.56
2023-05-23T22:22:49.490Z,102088.53
2023-05-23T22:25:19.435Z,102089.94
2023-05-23T22:27:46.331Z,102098.94
2023-05-23T22:30:13.400Z,102091.41
2023-05-23T22:32:40.242Z,102104.63
2023-05-23T22:35:07.281Z,102098.34
2023-05-23T22:37:34.415Z,102098.53
2023-05-23T22:40:03.778Z,102101.09
2023-05-23T22:42:30.619Z,102101.22
2023-05-23T22:45:00.108Z,102098.03
2023-05-23T22:47:29.265Z,102105.59
2023-05-23T22:50:03.597Z,102106.56
2023-05-23T22:52:34.542Z,102100.72
2023-05-23T22:55:01.395Z,102105.88
2023-05-23T22:57:28.207Z,102102.53
2023-05-23T22:59:58.759Z,102094.75
2023-05-23T23:02:25.822Z,102089.72
2023-05-23T23:04:52.716Z,102082.22
2023-05-23T23:07:20.611Z,102084.66
2023-05-23T23:09:47.310Z,102089.78
2023-05-23T23:12:14.212Z,102078.38
2023-05-23T23:14:40.962Z,102083.13
2023-05-23T23:17:07.835Z,102085.63
2023-05-23T23:19:35.305Z,102081.09
2023-05-23T23:22:02.189Z,102077.69
2023-05-23T23:24:29.015Z,102076.13
2023-05-23T23:26:55.899Z,102086.06
2023-05-23T23:29:23.897Z,102076.34
2023-05-23T23:31:51.665Z,102085.13
2023-05-23T23:34:18.782Z,102070.41
2023-05-23T23:36:45.782Z,102086.50
2023-05-23T23:39:12.476Z,102085.84
2023-05-23T23:41:39.794Z,102080.00
2023-05-23T23:44:06.818Z,102080.38
2023-05-23T23:46:33.901Z,102079.91
2023-05-23T23:49:09.257Z,102087.09
2023-05-23T23:51:36.548Z,102084.81
2023-05-23T23:54:03.460Z,102078.19
2023-05-23T23:56:30.288Z,102076.88
2023-05-23T23:58:57.114Z,102079.38
